createdAt,value
2018-12-12T00:01:56.977Z,101994.58
2018-12-12T00:04:27.741Z,101994.19
2018-12-12T00:06:56.700Z,101996.00
2018-12-12T00:09:25.519Z,101990.42
2018-12-12T00:11:54.481Z,101990.42
2018-12-12T00:14:23.364Z,101993.33
2018-12-12T00:16:52.199Z,102004.48
2018-12-12T00:19:21.288Z,102002.63
2018-12-12T00:21:50.154Z,101999.95
2018-12-12T00:24:19.042Z,102004.23
2018-12-12T00:26:47.924Z,102004.62
2018-12-12T00:29:16.817Z,102013.67
2018-12-12T00:31:45.708Z,102014.02
2018-12-12T00:34:14.581Z,102005.65
2018-12-12T00:36:43.495Z,102005.56
2018-12-12T00:39:12.372Z,102005.95
2018-12-12T00:41:41.213Z,101994.72
2018-12-12T00:44:10.157Z,101989.09
2018-12-12T00:46:39.254Z,101988.29
2018-12-12T00:49:08.238Z,101981.29
2018-12-12T00:51:37.320Z,101983.85
2018-12-12T00:54:06.233Z,101981.63
2018-12-12T00:56:35.048Z,101975.84
2018-12-12T00:59:04.133Z,101974.08
2018-12-12T01:01:32.976Z,101976.25
2018-12-12T01:04:01.818Z,101984.50
2018-12-12T01:06:30.636Z,101988.42
2018-12-12T01:08:59.580Z,101981.02
2018-12-12T01:11:33.790Z,101984.95
2018-12-12T01:14:02.763Z,101986.20
2018-12-12T01:16:31.669Z,101997.08
2018-12-12T01:19:00.558Z,101988.88
2018-12-12T01:21:30.696Z,101999.41
2018-12-12T01:23:59.573Z,101996.34
2018-12-12T01:26:28.472Z,102003.03
2018-12-12T01:28:57.352Z,102001.44
2018-12-12T01:31:26.228Z,102001.89
2018-12-12T01:33:56.057Z,101997.05
2018-12-12T01:36:25.157Z,101995.69
2018-12-12T01:38:54.003Z,101998.77
2018-12-12T01:41:22.830Z,101996.66
2018-12-12T01:43:51.835Z,102001.38
2018-12-12T01:46:20.709Z,102008.83
2018-12-12T01:48:49.553Z,102002.69
2018-12-12T01:51:18.388Z,102006.50
2018-12-12T01:53:48.682Z,102016.88
2018-12-12T01:56:17.607Z,102014.27
2018-12-12T01:58:46.529Z,102014.36
2018-12-12T02:01:15.352Z,102017.83
2018-12-12T02:03:44.277Z,102021.21
2018-12-12T02:06:13.164Z,102022.06
2018-12-12T02:08:42.000Z,102021.16
2018-12-12T02:11:10.868Z,102015.52
2018-12-12T02:13:39.765Z,102012.45
2018-12-12T02:16:09.501Z,102015.52
2018-12-12T02:18:40.624Z,102013.41
2018-12-12T02:21:09.548Z,102022.98
2018-12-12T02:23:38.356Z,102021.16
2018-12-12T02:26:07.261Z,102027.19
2018-12-12T02:28:36.153Z,102024.56
2018-12-12T02:31:04.968Z,102020.19
2018-12-12T02:33:33.821Z,102021.04
2018-12-12T02:36:02.816Z,102020.13
2018-12-12T02:38:31.642Z,102021.87
2018-12-12T02:41:00.606Z,102023.91
2018-12-12T02:43:29.525Z,102019.48
2018-12-12T02:45:58.355Z,102015.45
2018-12-12T02:48:27.598Z,102020.19
2018-12-12T02:50:56.482Z,102024.11
2018-12-12T02:53:25.313Z,102019.27
2018-12-12T02:55:54.128Z,102025.30
2018-12-12T02:58:22.945Z,102020.06
2018-12-12T03:00:51.820Z,102020.13
2018-12-12T03:03:20.710Z,102018.36
2018-12-12T03:05:49.601Z,102024.05
2018-12-12T03:08:18.484Z,102026.42
2018-12-12T03:10:47.510Z,102025.56
2018-12-12T03:13:16.472Z,102028.24
2018-12-12T03:15:45.825Z,102029.16
2018-12-12T03:18:14.782Z,102036.55
2018-12-12T03:20:43.652Z,102036.16
2018-12-12T03:23:12.556Z,102038.77
2018-12-12T03:25:41.441Z,102042.19
2018-12-12T03:28:10.344Z,102039.42
2018-12-12T03:30:39.158Z,102038.52
2018-12-12T03:33:08.118Z,102035.50
2018-12-12T03:35:37.114Z,102039.52
2018-12-12T03:38:06.013Z,102037.47
2018-12-12T03:40:35.785Z,102044.02
2018-12-12T03:43:04.936Z,102034.79
2018-12-12T03:45:33.790Z,102034.73
2018-12-12T03:48:02.770Z,102030.80
2018-12-12T03:50:31.669Z,102032.11
2018-12-12T03:53:00.632Z,102032.48
2018-12-12T03:55:29.559Z,102037.60
2018-12-12T03:57:58.463Z,102035.38
2018-12-12T04:00:27.334Z,102037.09
2018-12-12T04:02:56.301Z,102029.23
2018-12-12T04:05:25.074Z,102036.97
2018-12-12T04:07:53.912Z,102034.75
2018-12-12T04:10:22.793Z,102040.39
2018-12-12T04:12:51.709Z,102035.20
2018-12-12T04:15:20.681Z,102043.92
2018-12-12T04:17:49.697Z,102034.35
2018-12-12T04:20:18.565Z,102032.13
2018-12-12T04:22:47.549Z,102033.90
2018-12-12T04:25:17.070Z,102030.31
2018-12-12T04:27:45.946Z,102029.00
2018-12-12T04:30:14.953Z,102031.10
2018-12-12T04:32:43.820Z,102034.64
2018-12-12T04:35:12.628Z,102032.47
2018-12-12T04:37:41.670Z,102033.39
2018-12-12T04:40:10.509Z,102035.95
2018-12-12T04:42:39.400Z,102032.47
2018-12-12T04:45:08.429Z,102029.00
2018-12-12T04:47:37.273Z,102023.77
2018-12-12T04:50:06.585Z,102031.62
2018-12-12T04:52:35.493Z,102031.28
2018-12-12T04:55:04.575Z,102027.41
2018-12-12T04:57:34.498Z,102021.03
2018-12-12T05:00:03.686Z,102021.31
2018-12-12T05:02:32.765Z,102024.73
2018-12-12T05:05:01.655Z,102015.11
2018-12-12T05:07:31.572Z,102021.14
2018-12-12T05:10:00.469Z,102027.17
2018-12-12T05:12:29.362Z,102020.63
2018-12-12T05:14:58.413Z,102018.52
2018-12-12T05:17:27.356Z,102032.13
2018-12-12T05:19:56.245Z,102036.45
2018-12-12T05:22:25.124Z,102036.86
2018-12-12T05:24:54.069Z,102038.96
2018-12-12T05:27:22.917Z,102038.05
2018-12-12T05:29:51.785Z,102037.96
2018-12-12T05:32:20.700Z,102040.22
2018-12-12T05:34:49.591Z,102036.73
2018-12-12T05:37:18.479Z,102038.05
2018-12-12T05:39:47.428Z,102043.66
2018-12-12T05:42:16.249Z,102046.27
2018-12-12T05:44:45.145Z,102034.64
2018-12-12T05:47:13.965Z,102040.27
2018-12-12T05:49:42.883Z,102044.26
2018-12-12T05:52:13.626Z,102039.48
2018-12-12T05:54:42.564Z,102051.66
2018-12-12T05:57:11.465Z,102047.79
2018-12-12T05:59:40.322Z,102048.25
2018-12-12T06:02:09.216Z,102044.77
2018-12-12T06:04:38.088Z,102046.02
2018-12-12T06:07:07.123Z,102051.27
2018-12-12T06:09:35.981Z,102052.97
2018-12-12T06:12:05.460Z,102047.34
2018-12-12T06:14:34.390Z,102052.17
2018-12-12T06:17:05.224Z,102052.17
2018-12-12T06:19:34.316Z,102055.25
2018-12-12T06:22:03.447Z,102058.72
2018-12-12T06:24:32.481Z,102061.69
2018-12-12T06:27:01.321Z,102065.16
2018-12-12T06:29:30.200Z,102065.55
2018-12-12T06:31:59.070Z,102065.92
2018-12-12T06:34:28.037Z,102064.70
2018-12-12T06:36:56.950Z,102069.39
2018-12-12T06:39:25.986Z,102073.27
2018-12-12T06:41:54.939Z,102070.19
2018-12-12T06:44:24.349Z,102072.36
2018-12-12T06:46:53.328Z,102076.80
2018-12-12T06:49:22.156Z,102071.55
2018-12-12T06:51:51.013Z,102075.94
2018-12-12T06:54:20.009Z,102078.66
2018-12-12T06:56:48.997Z,102078.20
2018-12-12T06:59:17.896Z,102082.19
2018-12-12T07:01:46.708Z,102080.47
2018-12-12T07:04:15.634Z,102079.73
2018-12-12T07:06:44.600Z,102082.81
2018-12-12T07:09:13.456Z,102084.17
2018-12-12T07:11:42.332Z,102093.80
2018-12-12T07:14:11.222Z,102073.75
2018-12-12T07:16:40.125Z,102087.77
2018-12-12T07:19:09.005Z,102083.38
2018-12-12T07:21:38.016Z,102082.41
2018-12-12T07:24:06.838Z,102080.59
2018-12-12T07:26:35.745Z,102091.92
2018-12-12T07:29:04.773Z,102084.91
2018-12-12T07:31:33.665Z,102086.63
2018-12-12T07:34:02.558Z,102083.55
2018-12-12T07:36:31.441Z,102083.09
2018-12-12T07:39:00.341Z,102085.71
2018-12-12T07:41:29.464Z,102086.56
2018-12-12T07:44:00.269Z,102087.02
2018-12-12T07:46:47.056Z,102092.77
2018-12-12T07:49:21.802Z,102095.39
2018-12-12T07:52:12.302Z,102098.52
2018-12-12T07:54:41.356Z,102105.58
2018-12-12T07:57:10.234Z,102110.59
2018-12-12T07:59:39.092Z,102106.46
2018-12-12T08:02:08.086Z,102107.90
2018-12-12T08:04:36.898Z,102114.61
2018-12-12T08:07:05.756Z,102106.66
2018-12-12T08:09:35.854Z,102114.02
2018-12-12T08:12:04.980Z,102118.55
2018-12-12T08:14:34.009Z,102122.13
2018-12-12T08:17:03.497Z,102116.39
2018-12-12T08:19:32.350Z,102126.30
2018-12-12T08:22:01.289Z,102126.25
2018-12-12T08:24:30.129Z,102123.48
2018-12-12T08:26:59.034Z,102123.73
2018-12-12T08:29:27.857Z,102128.35
2018-12-12T08:31:56.705Z,102128.16
2018-12-12T08:34:26.921Z,102129.25
2018-12-12T08:36:55.800Z,102125.13
2018-12-12T08:39:24.704Z,102130.17
2018-12-12T08:41:53.520Z,102128.75
2018-12-12T08:44:22.357Z,102129.45
2018-12-12T08:46:51.177Z,102133.66
2018-12-12T08:49:20.062Z,102138.64
2018-12-12T08:51:48.946Z,102137.16
2018-12-12T08:54:17.838Z,102142.29
2018-12-12T08:56:46.753Z,102140.83
2018-12-12T08:59:15.628Z,102147.33
2018-12-12T09:01:45.305Z,102152.86
2018-12-12T09:04:14.226Z,102148.81
2018-12-12T09:06:43.036Z,102143.05
2018-12-12T09:09:12.933Z,102135.14
2018-12-12T09:11:41.858Z,102144.56
2018-12-12T09:14:10.781Z,102142.80
2018-12-12T09:16:44.424Z,102142.28
2018-12-12T09:19:13.397Z,102154.81
2018-12-12T09:21:42.400Z,102152.13
2018-12-12T09:24:11.216Z,102152.41
2018-12-12T09:26:40.103Z,102149.73
2018-12-12T09:29:08.956Z,102149.28
2018-12-12T09:31:39.909Z,102154.31
2018-12-12T09:34:10.781Z,102156.54
2018-12-12T09:36:39.613Z,102155.17
2018-12-12T09:39:08.631Z,102161.20
2018-12-12T09:41:40.339Z,102152.42
2018-12-12T09:44:09.208Z,102154.53
2018-12-12T09:46:38.193Z,102151.00
2018-12-12T09:49:08.137Z,102155.33
2018-12-12T09:51:38.957Z,102149.17
2018-12-12T09:54:09.741Z,102159.52
2018-12-12T09:56:38.581Z,102149.97
2018-12-12T09:59:07.525Z,102151.13
2018-12-12T10:01:36.409Z,102151.01
2018-12-12T10:04:06.053Z,102145.31
2018-12-12T10:06:35.009Z,102149.52
2018-12-12T10:09:05.928Z,102147.23
2018-12-12T10:11:35.864Z,102153.64
2018-12-12T10:14:04.864Z,102149.58
2018-12-12T10:16:33.736Z,102150.71
2018-12-12T10:19:02.640Z,102149.34
2018-12-12T10:21:31.545Z,102143.97
2018-12-12T10:24:00.424Z,102143.36
2018-12-12T10:26:29.916Z,102140.67
2018-12-12T10:28:58.900Z,102139.63
2018-12-12T10:31:27.885Z,102135.70
2018-12-12T10:33:56.766Z,102137.34
2018-12-12T10:36:25.784Z,102132.42
2018-12-12T10:38:54.896Z,102126.89
2018-12-12T10:41:24.385Z,102130.05
2018-12-12T10:43:53.384Z,102121.59
2018-12-12T10:46:22.753Z,102124.78
2018-12-12T10:48:52.192Z,102125.45
2018-12-12T10:51:21.168Z,102121.77
2018-12-12T10:53:50.074Z,102122.47
2018-12-12T10:56:18.957Z,102121.74
2018-12-12T10:58:47.854Z,102120.53
2018-12-12T11:01:22.174Z,102114.29
2018-12-12T11:03:51.045Z,102111.59
2018-12-12T11:06:19.945Z,102110.22
2018-12-12T11:08:48.826Z,102105.62
2018-12-12T11:11:17.764Z,102111.48
2018-12-12T11:13:46.624Z,102112.07
2018-12-12T11:16:15.447Z,102105.78
2018-12-12T11:18:44.392Z,102096.98
2018-12-12T11:21:13.441Z,102100.93
2018-12-12T11:23:42.405Z,102094.99
2018-12-12T11:26:11.277Z,102089.28
2018-12-12T11:28:40.169Z,102086.26
2018-12-12T11:31:09.049Z,102090.80
2018-12-12T11:33:37.945Z,102086.00
2018-12-12T11:36:06.928Z,102080.47
2018-12-12T11:38:35.839Z,102077.59
2018-12-12T11:41:04.861Z,102083.96
2018-12-12T11:43:33.721Z,102072.99
2018-12-12T11:46:02.596Z,102075.61
2018-12-12T11:48:31.500Z,102072.52
2018-12-12T11:51:00.394Z,102063.23
2018-12-12T11:53:29.385Z,102061.55
2018-12-12T11:55:58.624Z,102056.44
2018-12-12T11:58:27.435Z,102057.83
2018-12-12T12:00:56.246Z,102056.53
2018-12-12T12:03:25.148Z,102050.41
2018-12-12T12:05:53.985Z,102057.83
2018-12-12T12:08:22.830Z,102054.76
2018-12-12T12:10:51.646Z,102050.11
2018-12-12T12:13:22.548Z,102054.98
2018-12-12T12:15:51.374Z,102052.42
2018-12-12T12:18:20.337Z,102051.25
2018-12-12T12:20:49.237Z,102045.94
2018-12-12T12:23:18.146Z,102043.52
2018-12-12T12:25:46.998Z,102044.55
2018-12-12T12:28:16.248Z,102038.33
2018-12-12T12:30:45.072Z,102033.17
2018-12-12T12:33:13.964Z,102035.47
2018-12-12T12:35:42.870Z,102037.19
2018-12-12T12:38:11.745Z,102028.73
2018-12-12T12:40:40.657Z,102035.43
2018-12-12T12:43:09.529Z,102029.28
2018-12-12T12:45:38.353Z,102026.22
2018-12-12T12:48:07.261Z,102028.48
2018-12-12T12:50:36.226Z,102020.67
2018-12-12T12:53:05.105Z,102018.05
2018-12-12T12:55:33.990Z,102011.64
2018-12-12T12:58:02.990Z,102011.53
2018-12-12T13:00:31.894Z,102013.76
2018-12-12T13:03:00.760Z,102007.31
2018-12-12T13:05:29.664Z,102010.98
2018-12-12T13:07:58.502Z,102007.95
2018-12-12T13:10:27.457Z,102007.98
2018-12-12T13:12:56.569Z,102005.43
2018-12-12T13:15:25.881Z,102004.31
2018-12-12T13:17:54.717Z,101999.39
2018-12-12T13:20:23.521Z,102002.28
2018-12-12T13:22:52.394Z,102002.92
2018-12-12T13:25:21.211Z,101999.50
2018-12-12T13:27:50.082Z,101998.52
2018-12-12T13:30:19.045Z,101996.56
2018-12-12T13:32:47.971Z,101997.34
2018-12-12T13:35:16.873Z,101992.08
2018-12-12T13:37:45.737Z,101984.91
2018-12-12T13:40:14.553Z,101981.66
2018-12-12T13:42:43.420Z,101983.51
2018-12-12T13:45:12.320Z,101975.47
2018-12-12T13:47:41.204Z,101977.08
2018-12-12T13:50:10.212Z,101966.30
2018-12-12T13:52:39.218Z,101970.25
2018-12-12T13:55:08.316Z,101969.78
2018-12-12T13:57:37.144Z,101971.64
2018-12-12T14:00:06.387Z,101968.00
2018-12-12T14:02:35.264Z,101966.09
2018-12-12T14:05:05.182Z,101963.23
2018-12-12T14:07:34.083Z,101962.69
2018-12-12T14:10:03.975Z,101960.31
2018-12-12T14:12:33.897Z,101965.87
2018-12-12T14:15:02.803Z,101965.25
2018-12-12T14:17:31.621Z,101967.75
2018-12-12T14:20:00.461Z,101965.84
2018-12-12T14:22:29.280Z,101966.53
2018-12-12T14:24:58.092Z,101960.28
2018-12-12T14:27:27.032Z,101957.25
2018-12-12T14:29:55.917Z,101960.52
2018-12-12T14:32:24.773Z,101959.88
2018-12-12T14:34:53.824Z,101959.17
2018-12-12T14:37:22.768Z,101960.17
2018-12-12T14:39:51.676Z,101960.73
2018-12-12T14:42:20.613Z,101959.95
2018-12-12T14:44:49.586Z,101951.83
2018-12-12T14:47:18.456Z,101951.97
2018-12-12T14:49:47.357Z,101960.77
2018-12-12T14:52:16.177Z,101966.95
2018-12-12T14:54:45.021Z,101963.94
2018-12-12T14:57:13.824Z,101958.29
2018-12-12T14:59:42.706Z,101960.91
2018-12-12T15:02:11.597Z,101962.23
2018-12-12T15:04:40.491Z,101961.84
2018-12-12T15:07:09.401Z,101961.16
2018-12-12T15:09:39.082Z,101962.76
2018-12-12T15:12:08.109Z,101954.70
2018-12-12T15:14:37.106Z,101958.48
2018-12-12T15:17:06.014Z,101967.10
2018-12-12T15:19:34.865Z,101962.69
2018-12-12T15:22:03.858Z,101963.88
2018-12-12T15:24:32.733Z,101962.48
2018-12-12T15:27:01.634Z,101959.73
2018-12-12T15:29:30.618Z,101962.66
2018-12-12T15:31:59.444Z,101966.73
2018-12-12T15:34:28.261Z,101966.93
2018-12-12T15:36:58.185Z,101968.05
2018-12-12T15:39:27.050Z,101973.45
2018-12-12T15:41:55.874Z,101968.34
2018-12-12T15:44:24.693Z,101974.97
2018-12-12T15:46:53.727Z,101970.31
2018-12-12T15:49:22.577Z,101976.93
2018-12-12T15:51:51.552Z,101978.86
2018-12-12T15:54:20.385Z,101977.48
2018-12-12T15:56:49.325Z,101979.89
2018-12-12T15:59:18.268Z,101977.56
2018-12-12T16:01:47.481Z,101977.75
2018-12-12T16:04:16.405Z,101988.30
2018-12-12T16:06:45.297Z,101984.13
2018-12-12T16:09:14.430Z,101986.36
2018-12-12T16:11:43.380Z,101981.63
2018-12-12T16:14:15.065Z,101980.91
2018-12-12T16:16:44.045Z,101980.58
2018-12-12T16:19:13.631Z,101978.59
2018-12-12T16:21:42.654Z,101981.77
2018-12-12T16:24:11.520Z,101977.17
2018-12-12T16:26:40.389Z,101983.38
2018-12-12T16:29:09.262Z,101980.83
2018-12-12T16:31:38.130Z,101983.72
2018-12-12T16:34:07.022Z,101980.31
2018-12-12T16:36:39.007Z,101972.39
2018-12-12T16:39:08.636Z,101974.67
2018-12-12T16:41:37.557Z,101977.41
2018-12-12T16:44:06.566Z,101978.33
2018-12-12T16:46:52.742Z,101979.23
2018-12-12T16:49:21.856Z,101980.48
2018-12-12T16:51:50.729Z,101978.72
2018-12-12T16:54:20.462Z,101983.56
2018-12-12T16:56:49.523Z,101977.02
2018-12-12T16:59:18.357Z,101984.94
2018-12-12T17:01:47.214Z,101987.67
2018-12-12T17:04:16.138Z,101985.11
2018-12-12T17:06:44.981Z,101996.50
2018-12-12T17:09:14.012Z,101996.59
2018-12-12T17:11:42.877Z,102003.20
2018-12-12T17:14:11.772Z,101994.27
2018-12-12T17:16:40.589Z,101998.32
2018-12-12T17:19:09.448Z,101998.92
2018-12-12T17:21:38.377Z,101999.74
2018-12-12T17:24:08.053Z,102004.73
2018-12-12T17:26:36.941Z,102002.71
2018-12-12T17:29:05.949Z,102000.27
2018-12-12T17:31:34.824Z,102001.27
2018-12-12T17:34:03.817Z,102002.94
2018-12-12T17:36:32.632Z,102001.38
2018-12-12T17:39:01.461Z,102002.41
2018-12-12T17:41:32.140Z,102000.24
2018-12-12T17:44:01.001Z,102004.23
2018-12-12T17:46:30.112Z,101995.12
2018-12-12T17:48:58.995Z,101991.53
2018-12-12T17:51:27.877Z,101990.28
2018-12-12T17:53:56.772Z,101991.25
2018-12-12T17:56:25.590Z,101985.16
2018-12-12T17:58:54.549Z,101985.30
2018-12-12T18:01:23.462Z,101988.04
2018-12-12T18:03:54.313Z,101986.39
2018-12-12T18:06:28.807Z,101981.66
2018-12-12T18:08:57.700Z,101980.87
2018-12-12T18:11:26.581Z,101981.77
2018-12-12T18:13:55.488Z,101977.00
2018-12-12T18:19:35.561Z,101972.61
2018-12-12T18:22:04.423Z,101976.55
2018-12-12T18:24:35.245Z,101978.76
2018-12-12T18:27:04.241Z,101980.98
2018-12-12T18:29:33.089Z,101982.69
2018-12-12T18:32:04.138Z,101979.67
2018-12-12T18:34:54.734Z,101982.89
2018-12-12T18:37:23.818Z,101988.57
2018-12-12T18:39:52.687Z,101989.63
2018-12-12T18:42:23.566Z,101994.41
2018-12-12T18:44:54.557Z,101991.98
2018-12-12T18:47:23.394Z,101990.34
2018-12-12T18:49:52.302Z,101996.08
2018-12-12T18:52:23.793Z,101984.36
2018-12-12T18:54:52.685Z,101987.89
2018-12-12T18:57:23.997Z,101992.20
2018-12-12T18:59:52.966Z,101989.65
2018-12-12T19:02:21.842Z,101987.20
2018-12-12T19:07:46.296Z,101978.51
2018-12-12T19:13:15.670Z,101978.62
2018-12-12T19:18:43.829Z,101969.71
2018-12-12T19:21:12.706Z,101975.74
2018-12-12T19:23:51.796Z,101978.22
2018-12-12T19:40:06.941Z,101976.09
2018-12-12T19:46:08.926Z,101973.98
2018-12-12T19:52:01.792Z,101971.11
2018-12-12T19:54:41.235Z,101967.06
2018-12-12T19:57:17.498Z,101975.31
2018-12-12T20:03:21.740Z,101976.91
2018-12-12T20:09:21.472Z,101975.84
2018-12-12T20:15:11.475Z,101978.75
2018-12-12T20:17:51.115Z,101981.37
2018-12-12T20:20:37.311Z,101980.11
2018-12-12T20:23:14.292Z,101982.39
2018-12-12T20:25:55.837Z,101985.41
2018-12-12T20:28:35.411Z,101986.61
2018-12-12T20:31:12.398Z,101976.92
2018-12-12T20:33:49.067Z,101978.66
2018-12-12T20:36:27.986Z,101975.59
2018-12-12T20:39:07.540Z,101982.98
2018-12-12T20:41:56.592Z,101979.46
2018-12-12T20:44:38.893Z,101979.00
2018-12-12T20:47:21.405Z,101982.87
2018-12-12T20:49:58.591Z,101982.72
2018-12-12T20:52:34.443Z,101978.73
2018-12-12T20:55:11.218Z,101981.30
2018-12-12T20:57:48.171Z,101971.16
2018-12-12T21:00:30.088Z,101974.52
2018-12-12T21:03:05.947Z,101976.61
2018-12-12T21:11:57.807Z,101970.41
2018-12-12T21:17:42.500Z,101973.33
2018-12-12T21:23:22.512Z,101971.90
2018-12-12T21:25:51.668Z,101970.07
2018-12-12T21:28:20.506Z,101970.98
2018-12-12T21:30:49.388Z,101967.97
2018-12-12T21:33:18.199Z,101970.59
2018-12-12T21:35:47.192Z,101966.20
2018-12-12T21:38:16.012Z,101961.81
2018-12-12T21:40:44.949Z,101962.61
2018-12-12T21:43:13.856Z,101958.67
2018-12-12T21:45:42.769Z,101957.77
2018-12-12T21:48:11.727Z,101954.30
2018-12-12T21:50:40.612Z,101952.47
2018-12-12T21:53:09.496Z,101950.70
2018-12-12T21:55:38.364Z,101946.31
2018-12-12T21:58:07.197Z,101946.77
2018-12-12T22:00:36.176Z,101943.23
2018-12-12T22:03:05.072Z,101943.62
2018-12-12T22:05:33.952Z,101938.84
2018-12-12T22:08:02.773Z,101936.62
2018-12-12T22:10:32.554Z,101934.00
2018-12-12T22:13:01.472Z,101932.23
2018-12-12T22:15:31.029Z,101929.61
2018-12-12T22:17:59.908Z,101931.32
2018-12-12T22:20:28.774Z,101934.80
2018-12-12T22:22:58.088Z,101931.23
2018-12-12T22:25:27.133Z,101926.44
2018-12-12T22:27:56.031Z,101918.98
2018-12-12T22:30:24.839Z,101910.72
2018-12-12T22:32:53.925Z,101906.43
2018-12-12T22:35:22.724Z,101907.73
2018-12-12T22:37:52.296Z,101909.51
2018-12-12T22:40:21.156Z,101904.79
2018-12-12T22:42:51.838Z,101909.97
2018-12-12T22:45:21.063Z,101916.06
2018-12-12T22:47:50.825Z,101908.66
2018-12-12T22:50:20.046Z,101906.49
2018-12-12T22:52:48.930Z,101901.71
2018-12-12T22:55:17.809Z,101899.55
2018-12-12T22:57:46.817Z,101894.31
2018-12-12T23:00:21.076Z,101905.31
2018-12-12T23:02:51.973Z,101907.93
2018-12-12T23:05:20.847Z,101908.45
2018-12-12T23:07:49.729Z,101901.17
2018-12-12T23:10:18.561Z,101896.91
2018-12-12T23:12:47.420Z,101899.75
2018-12-12T23:15:16.405Z,101900.39
2018-12-12T23:17:45.245Z,101896.30
2018-12-12T23:20:15.215Z,101893.56
2018-12-12T23:22:44.102Z,101890.24
2018-12-12T23:25:12.986Z,101883.91
2018-12-12T23:27:41.899Z,101888.93
2018-12-12T23:30:11.323Z,101885.23
2018-12-12T23:32:40.122Z,101884.27
2018-12-12T23:35:10.095Z,101878.80
2018-12-12T23:37:38.973Z,101869.06
2018-12-12T23:40:07.913Z,101871.00
2018-12-12T23:42:36.866Z,101866.85
2018-12-12T23:45:06.176Z,101871.04
2018-12-12T23:47:35.018Z,101864.73
2018-12-12T23:50:04.061Z,101864.05
2018-12-12T23:52:33.869Z,101862.43
2018-12-12T23:55:05.201Z,101860.78
2018-12-12T23:57:34.113Z,101854.36
